createdAt,value
2023-01-02T00:02:03.204Z,11.16
2023-01-02T00:06:06.905Z,11.04
2023-01-02T00:10:11.481Z,11.35
2023-01-02T00:14:14.861Z,11.74
2023-01-02T00:18:17.819Z,11.86
2023-01-02T00:22:20.721Z,11.40
2023-01-02T00:26:24.867Z,11.48
2023-01-02T00:30:31.090Z,11.38
2023-01-02T00:34:39.077Z,11.58
2023-01-02T00:38:42.047Z,11.63
2023-01-02T00:42:46.181Z,11.76
2023-01-02T00:46:50.152Z,11.61
2023-01-02T00:50:52.881Z,11.61
2023-01-02T00:54:56.252Z,11.80
2023-01-02T00:59:00.708Z,11.84
2023-01-02T01:03:03.714Z,11.86
2023-01-02T01:07:07.346Z,11.73
2023-01-02T01:11:13.146Z,11.63
2023-01-02T01:15:17.352Z,11.51
2023-01-02T01:19:20.382Z,11.59
2023-01-02T01:23:23.903Z,11.67
2023-01-02T01:27:26.783Z,11.50
2023-01-02T01:31:30.887Z,11.05
2023-01-02T01:35:34.665Z,11.04
2023-01-02T01:39:37.261Z,11.24
2023-01-02T01:43:44.864Z,11.11
2023-01-02T01:47:52.748Z,11.01
2023-01-02T01:51:57.166Z,11.00
2023-01-02T01:56:03.256Z,11.33
2023-01-02T02:00:08.406Z,10.99
2023-01-02T02:04:12.967Z,10.91
2023-01-02T02:08:18.922Z,11.01
2023-01-02T02:12:27.692Z,10.75
2023-01-02T02:16:37.927Z,9.93
2023-01-02T02:20:44.066Z,9.74
2023-01-02T02:25:01.958Z,9.85
2023-01-02T02:29:27.105Z,9.50
2023-01-02T02:33:39.278Z,9.16
2023-01-02T02:37:48.100Z,9.17
2023-01-02T02:41:58.453Z,9.72
2023-01-02T02:46:06.239Z,9.32
2023-01-02T02:50:13.321Z,8.87
2023-01-02T02:54:20.037Z,8.79
2023-01-02T02:58:23.854Z,8.79
2023-01-02T03:02:27.034Z,8.97
2023-01-02T03:06:45.774Z,8.97
2023-01-02T03:10:53.204Z,9.12
2023-01-02T03:14:59.754Z,9.76
2023-01-02T03:19:06.291Z,10.12
2023-01-02T03:23:14.351Z,10.78
2023-01-02T03:27:22.036Z,10.61
2023-01-02T03:31:26.906Z,10.60
2023-01-02T03:35:34.483Z,10.68
2023-01-02T03:39:42.678Z,10.80
2023-01-02T03:43:52.972Z,11.01
2023-01-02T03:48:03.314Z,11.23
2023-01-02T03:52:06.372Z,11.21
2023-01-02T03:56:17.758Z,11.24
2023-01-02T04:00:21.711Z,11.23
2023-01-02T04:04:32.209Z,11.45
2023-01-02T04:08:38.772Z,11.46
2023-01-02T04:12:46.997Z,11.53
2023-01-02T04:16:51.025Z,11.61
2023-01-02T04:20:56.028Z,11.43
2023-01-02T04:25:03.315Z,11.60
2023-01-02T04:29:08.049Z,11.58
2023-01-02T04:33:11.845Z,11.69
2023-01-02T04:37:30.932Z,11.55
2023-01-02T04:41:35.255Z,11.58
2023-01-02T04:45:39.430Z,11.67
2023-01-02T04:49:42.134Z,11.54
2023-01-02T04:53:45.188Z,11.60
2023-01-02T04:57:48.192Z,11.66
2023-01-02T05:01:52.334Z,11.69
2023-01-02T05:06:01.501Z,11.65
2023-01-02T05:10:04.771Z,11.67
2023-01-02T05:14:08.087Z,11.55
2023-01-02T05:18:12.597Z,11.77
2023-01-02T05:22:32.912Z,11.67
2023-01-02T05:26:35.874Z,11.63
2023-01-02T05:30:39.198Z,11.54
2023-01-02T05:34:43.287Z,11.53
2023-01-02T05:38:46.189Z,11.47
2023-01-02T05:42:49.295Z,11.40
2023-01-02T05:46:52.471Z,11.39
2023-01-02T05:50:56.658Z,11.29
2023-01-02T05:54:59.765Z,11.30
2023-01-02T05:59:02.484Z,11.28
2023-01-02T06:03:05.382Z,11.28
2023-01-02T06:07:09.540Z,11.12
2023-01-02T06:11:12.652Z,10.99
2023-01-02T06:15:15.323Z,11.10
2023-01-02T06:19:18.045Z,11.02
2023-01-02T06:23:22.987Z,10.98
2023-01-02T06:27:25.669Z,11.01
2023-01-02T06:31:29.861Z,11.18
2023-01-02T06:35:33.073Z,11.08
2023-01-02T06:39:37.175Z,10.93
2023-01-02T06:43:44.117Z,10.90
2023-01-02T06:47:46.916Z,10.93
2023-01-02T06:51:50.063Z,10.78
2023-01-02T06:55:55.916Z,10.82
2023-01-02T06:59:58.714Z,10.71
2023-01-02T07:04:01.628Z,10.69
2023-01-02T07:08:04.620Z,10.50
2023-01-02T07:12:08.735Z,10.27
2023-01-02T07:16:13.273Z,10.41
2023-01-02T07:20:16.191Z,10.05
2023-01-02T07:24:18.860Z,10.22
2023-01-02T07:28:23.362Z,10.59
2023-01-02T07:32:27.711Z,10.94
2023-01-02T07:36:30.677Z,10.75
2023-01-02T07:40:33.611Z,10.80
2023-01-02T07:44:37.838Z,10.87
2023-01-02T07:48:40.680Z,11.02
2023-01-02T07:52:43.574Z,11.17
2023-01-02T07:56:46.779Z,11.30
2023-01-02T08:00:51.063Z,11.22
2023-01-02T08:04:53.742Z,11.34
2023-01-02T08:08:56.572Z,11.43
2023-01-02T08:12:59.489Z,11.33
2023-01-02T08:17:03.588Z,11.26
2023-01-02T08:21:06.882Z,11.24
2023-01-02T08:25:11.334Z,11.13
2023-01-02T08:29:14.298Z,11.26
2023-01-02T08:33:18.418Z,11.19
2023-01-02T08:37:21.763Z,10.96
2023-01-02T08:41:34.630Z,10.88
2023-01-02T08:45:37.379Z,10.58
2023-01-02T08:49:41.449Z,10.47
2023-01-02T08:53:44.398Z,10.34
2023-01-02T08:57:47.033Z,10.27
2023-01-02T09:01:49.808Z,10.14
2023-01-02T09:05:55.948Z,10.10
2023-01-02T09:09:58.659Z,10.09
2023-01-02T09:14:02.331Z,10.03
2023-01-02T09:18:05.078Z,10.02
2023-01-02T09:22:09.488Z,9.97
2023-01-02T09:26:13.247Z,9.89
2023-01-02T09:30:15.831Z,9.88
2023-01-02T09:34:18.603Z,9.82
2023-01-02T09:38:22.961Z,9.79
2023-01-02T09:42:25.825Z,9.82
2023-01-02T09:46:33.519Z,9.76
2023-01-02T09:50:36.927Z,9.74
2023-01-02T09:54:41.205Z,9.79
2023-01-02T09:58:49.162Z,9.84
2023-01-02T10:03:08.204Z,9.83
2023-01-02T10:07:14.927Z,9.86
2023-01-02T10:11:27.157Z,9.81
2023-01-02T10:15:30.751Z,9.95
2023-01-02T10:19:42.018Z,9.92
2023-01-02T10:23:48.575Z,9.99
2023-01-02T10:27:57.559Z,9.99
2023-01-02T10:32:01.866Z,10.03
2023-01-02T10:36:24.330Z,9.97
2023-01-02T10:40:27.022Z,10.00
2023-01-02T10:44:39.981Z,9.88
2023-01-02T10:48:48.371Z,9.98
2023-01-02T10:52:59.760Z,9.97
2023-01-02T10:57:02.606Z,9.96
2023-01-02T11:01:08.791Z,9.79
2023-01-02T11:05:20.733Z,9.91
2023-01-02T11:09:32.280Z,10.00
2023-01-02T11:13:51.933Z,10.03
2023-01-02T11:17:59.815Z,10.00
2023-01-02T11:22:02.610Z,9.98
2023-01-02T11:26:06.858Z,9.98
2023-01-02T11:30:21.901Z,9.96
2023-01-02T11:34:27.601Z,10.03
2023-01-02T11:38:44.215Z,9.96
2023-01-02T11:43:07.658Z,9.94
2023-01-02T11:47:11.975Z,9.93
2023-01-02T11:51:18.039Z,9.89
2023-01-02T11:55:30.795Z,9.79
2023-01-02T11:59:37.641Z,9.96
2023-01-02T12:03:40.886Z,9.82
2023-01-02T12:07:46.772Z,10.03
2023-01-02T12:12:02.235Z,10.01
2023-01-02T12:16:17.194Z,9.92
2023-01-02T12:20:28.896Z,9.99
2023-01-02T12:24:59.766Z,10.05
2023-01-02T12:29:46.838Z,10.01
2023-01-02T12:33:47.464Z,10.06
2023-01-02T12:37:55.135Z,10.04
2023-01-02T12:42:04.856Z,10.01
2023-01-02T12:46:15.808Z,9.97
2023-01-02T12:50:27.125Z,9.98
2023-01-02T12:55:00.208Z,9.95
2023-01-02T12:59:26.285Z,9.93
2023-01-02T13:03:43.211Z,9.88
2023-01-02T13:07:48.824Z,9.77
2023-01-02T13:12:00.577Z,9.84
2023-01-02T13:16:22.617Z,9.61
2023-01-02T13:20:34.076Z,9.44
2023-01-02T13:24:37.166Z,9.36
2023-01-02T13:28:43.079Z,9.32
2023-01-02T13:32:49.122Z,9.31
2023-01-02T13:36:53.036Z,9.16
2023-01-02T13:40:58.370Z,9.10
2023-01-02T13:45:01.901Z,9.16
2023-01-02T13:49:07.352Z,9.00
2023-01-02T13:53:28.309Z,8.96
2023-01-02T13:57:33.966Z,8.93
2023-01-02T14:02:14.891Z,8.87
2023-01-02T14:06:33.819Z,8.87
2023-01-02T14:10:41.872Z,8.85
2023-01-02T14:14:50.739Z,8.79
2023-01-02T14:19:14.966Z,8.60
2023-01-02T14:23:28.441Z,8.56
2023-01-02T14:27:33.922Z,8.72
2023-01-02T14:31:43.654Z,8.78
2023-01-02T14:35:51.977Z,8.74
2023-01-02T14:39:57.704Z,8.71
2023-01-02T14:44:01.069Z,8.79
2023-01-02T14:48:08.854Z,8.65
2023-01-02T14:52:15.110Z,8.79
2023-01-02T14:56:40.385Z,8.78
2023-01-02T15:00:49.038Z,8.70
2023-01-02T15:04:54.451Z,8.56
2023-01-02T15:09:02.103Z,8.67
2023-01-02T15:13:07.496Z,8.67
2023-01-02T15:17:12.279Z,8.60
2023-01-02T15:21:15.941Z,8.56
2023-01-02T15:25:32.250Z,8.47
2023-01-02T15:29:36.197Z,8.41
2023-01-02T15:33:39.472Z,8.42
2023-01-02T15:37:43.700Z,8.43
2023-01-02T15:41:49.311Z,8.41
2023-01-02T15:45:54.303Z,8.44
2023-01-02T15:49:57.643Z,8.41
2023-01-02T15:54:03.472Z,8.44
2023-01-02T15:58:25.516Z,8.44
2023-01-02T16:02:37.703Z,8.34
2023-01-02T16:06:42.759Z,8.42
2023-01-02T16:10:50.732Z,8.37
2023-01-02T16:14:56.152Z,8.30
2023-01-02T16:19:01.648Z,8.26
2023-01-02T16:23:06.069Z,8.35
2023-01-02T16:27:13.878Z,8.20
2023-01-02T16:31:18.242Z,8.18
2023-01-02T16:35:25.441Z,8.18
2023-01-02T16:39:42.527Z,8.20
2023-01-02T16:43:47.833Z,8.15
2023-01-02T16:47:51.254Z,8.13
2023-01-02T16:51:55.919Z,8.15
2023-01-02T16:55:59.598Z,8.10
2023-01-02T17:00:03.331Z,8.16
2023-01-02T17:04:06.240Z,8.00
2023-01-02T17:08:10.474Z,8.08
2023-01-02T17:12:13.997Z,7.94
2023-01-02T17:16:17.217Z,7.86
2023-01-02T17:20:21.081Z,7.89
2023-01-02T17:24:25.316Z,7.87
2023-01-02T17:28:30.777Z,7.87
2023-01-02T17:32:33.987Z,7.86
2023-01-02T17:36:37.184Z,7.88
2023-01-02T17:40:41.761Z,7.94
2023-01-02T17:44:45.461Z,7.88
2023-01-02T17:48:48.470Z,7.87
2023-01-02T17:52:51.394Z,7.79
2023-01-02T17:56:56.595Z,7.87
2023-01-02T18:01:01.146Z,7.89
2023-01-02T18:05:04.252Z,7.93
2023-01-02T18:09:07.784Z,7.89
2023-01-02T18:13:18.962Z,7.85
2023-01-02T18:17:30.042Z,7.80
2023-01-02T18:21:34.198Z,7.87
2023-01-02T18:25:37.420Z,7.70
2023-01-02T18:29:45.108Z,7.76
2023-01-02T18:33:48.359Z,7.60
2023-01-02T18:37:52.735Z,7.66
2023-01-02T18:41:59.652Z,7.66
2023-01-02T18:46:12.845Z,7.65
2023-01-02T18:50:33.617Z,7.52
2023-01-02T18:54:36.425Z,7.69
2023-01-02T18:58:43.366Z,7.74
2023-01-02T19:02:55.808Z,7.63
2023-01-02T19:07:02.898Z,7.63
2023-01-02T19:11:28.880Z,7.71
2023-01-02T19:15:40.658Z,7.55
2023-01-02T19:19:45.811Z,7.55
2023-01-02T19:23:53.742Z,7.64
2023-01-02T19:27:57.959Z,7.67
2023-01-02T19:32:05.046Z,7.64
2023-01-02T19:36:15.556Z,7.61
2023-01-02T19:40:21.149Z,7.57
2023-01-02T19:44:24.678Z,7.52
2023-01-02T19:48:28.159Z,7.36
2023-01-02T19:52:33.001Z,7.22
2023-01-02T19:56:36.901Z,7.17
2023-01-02T20:00:39.875Z,7.13
2023-01-02T20:04:43.243Z,7.12
2023-01-02T20:08:47.406Z,7.07
2023-01-02T20:12:51.280Z,7.12
2023-01-02T20:16:54.108Z,7.04
2023-01-02T20:20:57.580Z,7.05
2023-01-02T20:25:02.032Z,7.00
2023-01-02T20:29:05.709Z,6.97
2023-01-02T20:33:11.435Z,6.95
2023-01-02T20:37:21.247Z,7.08
2023-01-02T20:41:25.451Z,7.01
2023-01-02T20:45:28.617Z,6.89
2023-01-02T20:49:31.986Z,6.79
2023-01-02T20:53:35.829Z,6.84
2023-01-02T20:57:44.060Z,6.83
2023-01-02T21:01:48.228Z,6.92
2023-01-02T21:05:53.929Z,6.93
2023-01-02T21:09:59.145Z,6.94
2023-01-02T21:14:04.483Z,6.97
2023-01-02T21:18:07.652Z,7.03
2023-01-02T21:22:10.793Z,6.97
2023-01-02T21:26:15.360Z,6.90
2023-01-02T21:30:20.552Z,6.81
2023-01-02T21:34:33.314Z,6.64
2023-01-02T21:38:39.950Z,6.37
2023-01-02T21:42:46.715Z,6.28
2023-01-02T21:46:53.999Z,6.36
2023-01-02T21:51:00.906Z,6.31
2023-01-02T21:55:07.423Z,6.38
2023-01-02T21:59:10.960Z,6.28
2023-01-02T22:03:15.832Z,6.36
2023-01-02T22:07:31.672Z,6.33
2023-01-02T22:11:52.756Z,6.31
2023-01-02T22:15:59.415Z,6.26
2023-01-02T22:20:04.481Z,6.19
2023-01-02T22:24:08.419Z,6.18
2023-01-02T22:28:11.494Z,6.23
2023-01-02T22:32:16.122Z,6.03
2023-01-02T22:36:20.450Z,6.02
2023-01-02T22:40:24.295Z,6.10
2023-01-02T22:44:28.080Z,6.23
2023-01-02T22:48:38.425Z,6.12
2023-01-02T22:52:43.638Z,6.43
2023-01-02T22:56:47.506Z,6.34
2023-01-02T23:00:58.848Z,6.43
2023-01-02T23:05:05.132Z,6.49
2023-01-02T23:09:12.010Z,6.63
2023-01-02T23:13:15.172Z,6.63
2023-01-02T23:17:35.725Z,6.63
2023-01-02T23:21:40.668Z,6.66
2023-01-02T23:25:55.954Z,6.68
2023-01-02T23:29:59.325Z,6.69
2023-01-02T23:34:04.329Z,6.71
2023-01-02T23:38:08.216Z,6.71
2023-01-02T23:42:15.887Z,6.73
2023-01-02T23:46:26.071Z,6.72
2023-01-02T23:50:29.446Z,6.74
2023-01-02T23:54:33.305Z,6.76
2023-01-02T23:58:39.788Z,6.76
